Date,TemperatureHighF,TemperatureAvgF,TemperatureLowF,DewpointHighF,DewpointAvgF,DewpointLowF,HumidityHigh,HumidityAvg,HumidityLow,PressureMaxIn,PressureMinIn,WindSpeedMaxMPH,WindSpeedAvgMPH,GustSpeedMaxMPH,PrecipitationSumIn
2013-1-1,56,42,32,37,32,26,94,69,33,30.31,30.21,20,4,20,0.00
2013-1-2,60,40,27,38,32,25,93,75,37,30.26,30.15,9,2,9,0.00
2013-1-3,61,39,27,40,33,25,95,81,42,30.30,30.19,6,1,6,0.00
2013-1-4,61,42,30,42,36,29,95,81,45,30.31,30.18,7,1,7,0.00
2013-1-5,51,42,33,46,39,31,95,90,75,30.28,30.09,10,1,10,0.48
2013-1-6,56,46,36,45,42,35,95,86,65,30.21,30.09,12,2,12,0.03
2013-1-7,60,44,34,48,40,32,96,87,60,30.27,30.16,6,1,6,0.00
2013-1-8,62,46,38,51,43,37,96,90,65,30.26,30.14,9,1,9,0.01
2013-1-9,50,44,38,47,40,34,96,88,63,30.17,29.98,22,3,22,0.02
2013-1-10,55,41,30,37,33,29,95,76,43,30.20,30.07,10,3,10,0.00
2013-1-11,53,38,28,39,33,26,94,81,53,30.27,30.12,8,1,8,0.00
2013-1-12,53,40,29,34,29,23,93,69,37,30.27,30.15,9,2,9,0.00
2013-1-13,53,38,23,30,21,9,94,57,20,30.29,30.18,21,4,21,0.00
2013-1-14,58,45,31,30,19,11,83,40,19,30.42,30.26,21,7,21,0.00
2013-1-15,54,38,27,35,30,25,93,76,47,30.50,30.41,12,2,12,0.00
2013-1-16,61,40,27,40,33,26,95,79,42,30.47,30.28,8,1,8,0.00
2013-1-17,67,42,25,44,34,24,95,79,35,30.29,30.15,8,2,8,0.01
2013-1-18,69,44,26,42,34,24,95,73,33,30.25,30.14,8,1,8,0.00
2013-1-19,73,47,31,40,32,26,89,62,22,30.26,30.16,10,2,10,0.00
2013-1-20,70,46,29,40,33,25,88,64,27,30.25,30.12,8,2,8,0.00
2013-1-21,69,46,30,41,34,27,90,67,31,30.19,30.10,10,2,10,0.00
2013-1-22,68,48,31,43,36,28,91,68,29,30.13,30.01,7,2,7,0.00
2013-1-23,52,49,45,49,45,39,94,86,74,30.11,29.97,9,2,9,0.44
2013-1-24,64,53,48,55,50,47,94,90,69,30.20,30.08,12,2,12,0.00
2013-1-25,66,56,48,56,51,46,95,86,65,30.21,30.05,10,2,10,0.00
2013-1-26,62,50,42,50,44,39,95,83,44,30.06,29.96,15,2,15,0.01
2013-1-27,58,46,39,37,36,32,85,67,39,30.18,30.10,7,2,7,0.01
2013-1-28,61,47,34,43,38,32,93,73,41,30.29,30.17,12,3,12,0.00
2013-1-29,66,48,36,46,40,34,92,76,46,30.37,30.26,12,2,12,0.00
2013-1-30,67,50,37,49,43,35,94,78,50,30.36,30.26,12,3,12,0.00
2013-1-31,69,48,33,50,42,31,96,81,45,30.32,30.19,10,2,10,0.00